Time;durP1;ratioP1;P1;durP2;ratioP2;P2;SDS_P1;SDS_P2;PMS_P1;PMS_P2;Temp;Humidity;BMP_temperature;BMP_pressure;BME280_temperature;BME280_humidity;BME280_pressure;Samples;Min_cycle;Max_cycle;Signal;HPM_P1;HPM_P2
2022/12/04 00:04:46;;;;;;;34.05;19.88;;;;;;;1.29;62.95;99879.50;10442735;28;20232;-69
2022/12/04 00:09:47;;;;;;;33.15;19.77;;;;;;;1.34;63.47;99880.22;10433727;28;20413;-70
2022/12/04 00:14:49;;;;;;;34.60;20.15;;;;;;;1.31;63.21;99882.88;10432459;28;20045;-69
2022/12/04 00:20:11;;;;;;;;;;;;;;;0.85;63.22;99894.22;10436236;28;20115;-69
2022/12/04 00:25:12;;;;;;;33.38;18.85;;;;;;;1.05;63.61;99894.66;10432972;28;19924;-68
2022/12/04 00:30:14;;;;;;;32.75;19.45;;;;;;;1.11;63.45;99885.06;10434221;28;20056;-71
2022/12/04 00:35:16;;;;;;;34.33;19.00;;;;;;;1.22;63.48;99888.22;10432550;28;21089;-68
2022/12/04 00:40:17;;;;;;;31.65;18.17;;;;;;;1.31;63.02;99889.75;10432213;28;20041;-69
2022/12/04 00:45:19;;;;;;;31.05;18.50;;;;;;;1.35;62.90;99883.66;10444622;28;20049;-70
2022/12/04 00:50:21;;;;;;;33.67;18.58;;;;;;;1.29;63.01;99891.53;10437504;28;20304;-69
2022/12/04 00:55:22;;;;;;;31.30;18.10;;;;;;;1.14;62.99;99890.13;10431950;28;20048;-68
2022/12/04 01:00:27;;;;;;;31.65;18.25;;;;;;;1.16;63.15;99890.09;10441969;28;20045;-69
2022/12/04 01:05:29;;;;;;;31.27;18.27;;;;;;;1.17;63.31;99887.50;10430296;28;20045;-69
2022/12/04 01:10:30;;;;;;;28.88;17.83;;;;;;;1.27;62.76;99886.41;10430590;28;20045;-69
2022/12/04 01:15:32;;;;;;;30.38;17.95;;;;;;;1.20;63.00;99884.84;10432291;28;20072;-70
2022/12/04 01:20:34;;;;;;;32.92;17.38;;;;;;;1.30;62.87;99870.88;10429392;28;20140;-69
2022/12/04 01:25:35;;;;;;;31.35;18.38;;;;;;;1.10;62.82;99885.06;10431237;28;20041;-70
2022/12/04 01:30:37;;;;;;;27.75;16.60;;;;;;;1.16;62.84;99866.91;10441019;28;20204;-69
2022/12/04 01:35:38;;;;;;;26.02;16.13;;;;;;;1.19;62.98;99859.13;10430344;28;20053;-69
2022/12/04 01:40:43;;;;;;;25.83;15.45;;;;;;;1.05;62.89;99862.03;10430155;28;20052;-68
2022/12/04 01:45:49;;;;;;;27.33;16.63;;;;;;;0.97;63.18;99858.75;10430641;28;20041;-69
2022/12/04 01:50:55;;;;;;;25.85;15.02;;;;;;;1.18;62.82;99860.84;10450417;28;20139;-69
2022/12/04 01:55:57;;;;;;;25.08;15.15;;;;;;;1.14;62.51;99854.06;10446090;28;20049;-68
2022/12/04 02:01:03;;;;;;;23.77;15.00;;;;;;;1.12;62.87;99858.41;10431213;28;20064;-68
2022/12/04 02:06:09;;;;;;;26.38;16.00;;;;;;;1.07;62.91;99855.13;10431704;28;20059;-69
2022/12/04 02:11:43;;;;;;;24.95;15.57;;;;;;;1.08;62.86;99855.94;10438601;28;20422;-69
2022/12/04 02:17:09;;;;;;;23.30;14.15;;;;;;;1.14;62.58;99860.94;10428479;28;20556;-68
2022/12/04 02:22:47;;;;;;;24.65;14.43;;;;;;;1.16;62.27;99857.47;10429583;28;20364;-69
2022/12/04 02:28:16;;;;;;;23.33;14.60;;;;;;;1.19;62.42;99859.13;10427477;28;20088;-68
2022/12/04 02:33:22;;;;;;;26.95;14.88;;;;;;;1.08;62.54;99863.66;10428184;28;20052;-68
2022/12/04 02:38:32;;;;;;;24.38;14.77;;;;;;;1.16;62.85;99877.22;10431370;28;20146;-69
2022/12/04 02:44:24;;;;;;;24.30;14.18;;;;;;;1.03;62.44;99881.81;10426593;28;20037;-68
2022/12/04 02:49:35;;;;;;;22.63;14.23;;;;;;;0.96;62.59;99884.53;10429285;28;20049;-68
2022/12/04 02:54:41;;;;;;;23.07;14.43;;;;;;;1.21;62.89;99872.81;10425929;28;20409;-68
2022/12/04 02:59:46;;;;;;;23.50;13.90;;;;;;;1.04;62.40;99870.63;10434007;28;20059;-69
2022/12/04 03:04:50;;;;;;;23.58;14.07;;;;;;;1.04;62.80;99867.19;10433194;28;20128;-68
2022/12/04 03:10:01;;;;;;;23.33;13.65;;;;;;;0.98;62.60;99859.59;10445340;28;20060;-68
2022/12/04 03:15:09;;;;;;;24.77;14.85;;;;;;;1.11;62.48;99867.03;10432079;28;20338;-70
2022/12/04 03:20:13;;;;;;;23.17;14.30;;;;;;;1.27;62.50;99864.94;10434507;28;20057;-68
2022/12/04 03:25:15;;;;;;;23.75;14.52;;;;;;;1.22;62.14;99867.63;10440505;28;20056;-68
2022/12/04 03:30:20;;;;;;;25.63;15.00;;;;;;;1.21;62.25;99863.38;10442026;28;20052;-68
2022/12/04 03:35:28;;;;;;;25.08;14.98;;;;;;;1.26;62.21;99864.09;10456482;28;20361;-68
2022/12/04 03:40:51;;;;;;;24.15;14.80;;;;;;;1.36;62.11;99864.72;10441055;28;20044;-69
2022/12/04 03:46:08;;;;;;;22.50;14.25;;;;;;;1.19;62.38;99872.88;10451147;28;20409;-69
2022/12/04 03:51:18;;;;;;;24.35;14.15;;;;;;;1.03;62.39;99866.38;10450605;28;20450;-68
2022/12/04 03:56:28;;;;;;;23.77;14.68;;;;;;;1.14;62.26;99856.66;10441560;28;20037;-68
2022/12/04 04:01:37;;;;;;;26.98;15.95;;;;;;;1.36;62.26;99855.25;10465141;28;20044;-69
2022/12/04 04:06:46;;;;;;;24.15;14.88;;;;;;;1.38;61.94;99844.09;10435372;28;20059;-69
2022/12/04 04:11:55;;;;;;;25.27;15.38;;;;;;;1.48;62.02;99850.72;10433234;28;20045;-68
2022/12/04 04:27:55;;;;;;;26.85;15.77;;;;;;;1.27;62.16;99844.34;10436810;28;20203;-69
2022/12/04 04:33:07;;;;;;;24.60;15.60;;;;;;;1.41;62.00;99856.88;10434149;28;20393;-68
2022/12/04 04:38:11;;;;;;;26.02;15.25;;;;;;;1.30;62.12;99850.25;10439283;28;20452;-69
2022/12/04 04:43:35;;;;;;;25.60;15.38;;;;;;;1.20;61.73;99858.22;10434801;28;20048;-69
2022/12/04 04:48:45;;;;;;;26.15;15.45;;;;;;;0.98;62.28;99851.88;10432424;28;20436;-68
2022/12/04 04:53:51;;;;;;;27.52;16.05;;;;;;;0.97;62.35;99855.34;10436427;28;20075;-68
2022/12/04 04:58:52;;;;;;;26.50;15.63;;;;;;;0.96;62.42;99851.06;10433546;28;20055;-68
2022/12/04 05:03:54;;;;;;;27.30;16.05;;;;;;;1.11;62.50;99856.75;10434355;28;20493;-69
2022/12/04 05:08:56;;;;;;;25.58;15.38;;;;;;;1.14;62.45;99853.22;10433333;28;20440;-68
2022/12/04 05:13:57;;;;;;;26.75;15.85;;;;;;;1.15;62.27;99857.50;10430650;28;20358;-69
2022/12/04 05:24:19;;;;;;;26.50;15.43;;;;;;;1.18;62.44;99866.00;10431815;28;20390;-68
2022/12/04 05:29:21;;;;;;;25.60;15.25;;;;;;;1.24;62.09;99854.69;10442757;28;20049;-68
2022/12/04 05:34:23;;;;;;;24.70;15.15;;;;;;;0.97;62.31;99857.91;10440875;28;20052;-69
2022/12/04 05:39:24;;;;;;;25.65;15.32;;;;;;;0.90;62.39;99862.34;10430406;28;20041;-68
2022/12/04 05:44:26;;;;;;;25.60;15.35;;;;;;;0.80;62.50;99857.44;10430257;28;20044;-69
2022/12/04 05:49:29;;;;;;;24.92;15.00;;;;;;;0.74;62.57;99860.13;10429938;28;20045;-68
2022/12/04 05:54:31;;;;;;;24.75;14.43;;;;;;;0.76;62.74;99866.09;10462142;28;20055;-70
2022/12/04 05:59:32;;;;;;;24.95;15.50;;;;;;;0.94;62.27;99863.97;10429292;28;20060;-69
2022/12/04 06:04:36;;;;;;;22.88;14.57;;;;;;;0.85;62.45;99860.78;10437595;28;20053;-68
2022/12/04 06:09:37;;;;;;;23.83;14.55;;;;;;;0.63;62.59;99859.53;10430746;28;20494;-68
2022/12/04 06:14:39;;;;;;;22.23;14.20;;;;;;;0.76;62.39;99856.66;10428588;28;20063;-68
2022/12/04 06:19:41;;;;;;;22.92;14.88;;;;;;;0.70;62.77;99867.09;10439774;28;20060;-69
2022/12/04 06:24:42;;;;;;;22.55;14.20;;;;;;;0.86;62.52;99872.75;10445769;28;20045;-69
2022/12/04 06:29:44;;;;;;;23.75;14.75;;;;;;;1.01;62.32;99883.59;10428340;28;20497;-69
2022/12/04 06:34:48;;;;;;;25.35;14.63;;;;;;;0.68;62.76;99883.44;10427182;28;20052;-68
2022/12/04 06:39:50;;;;;;;22.80;14.18;;;;;;;0.42;63.23;99883.97;10431158;28;20067;-68
2022/12/04 06:44:51;;;;;;;22.10;14.10;;;;;;;0.50;63.19;99885.47;10429860;28;20187;-68
2022/12/04 06:49:53;;;;;;;22.90;14.35;;;;;;;0.59;63.07;99881.06;10426566;28;20060;-68
2022/12/04 06:54:55;;;;;;;22.65;14.55;;;;;;;0.67;63.07;99886.91;10430756;28;20056;-69
2022/12/04 06:59:57;;;;;;;27.38;15.15;;;;;;;0.72;62.98;99891.06;10427234;28;20060;-68
2022/12/04 07:04:59;;;;;;;24.85;14.45;;;;;;;0.72;63.04;99896.22;10431968;28;20044;-67
2022/12/04 07:10:02;;;;;;;23.33;14.15;;;;;;;0.84;63.05;99889.94;10431195;28;20082;-68
2022/12/04 07:15:04;;;;;;;21.55;14.27;;;;;;;0.93;62.99;99903.47;10426099;28;20056;-69
2022/12/04 07:20:06;;;;;;;22.08;14.10;;;;;;;0.93;62.57;99882.88;10429266;28;20049;-68
2022/12/04 07:25:08;;;;;;;25.20;15.50;;;;;;;0.66;63.17;99878.31;10425844;28;20049;-68
2022/12/04 07:30:10;;;;;;;27.38;15.55;;;;;;;0.68;63.22;99883.44;10420244;28;20053;-69
2022/12/04 07:35:16;;;;;;;26.30;15.18;;;;;;;0.80;63.23;99873.72;10427140;28;20057;-68
2022/12/04 07:40:18;;;;;;;25.85;15.55;;;;;;;1.08;62.66;99882.53;10425006;28;20045;-68
2022/12/04 07:45:20;;;;;;;23.80;14.15;;;;;;;0.71;63.09;99888.53;10419580;28;20044;-67
2022/12/04 07:50:21;;;;;;;24.38;15.65;;;;;;;0.68;63.26;99883.44;10419649;28;20409;-68
2022/12/04 07:55:23;;;;;;;24.88;15.15;;;;;;;0.79;63.30;99877.16;10427940;28;20049;-69
2022/12/04 08:00:25;;;;;;;25.15;14.60;;;;;;;1.06;62.85;99871.44;10423910;28;20045;-68
2022/12/04 08:05:26;;;;;;;24.95;15.23;;;;;;;0.99;62.91;99872.44;10425194;28;20055;-68
2022/12/04 08:10:28;;;;;;;27.67;15.73;;;;;;;0.96;63.13;99869.94;10423003;28;20504;-68
2022/12/04 08:15:29;;;;;;;28.77;15.90;;;;;;;1.08;63.20;99869.66;10437487;28;20929;-68
2022/12/04 08:20:31;;;;;;;26.08;15.70;;;;;;;1.05;63.12;99872.31;10431002;28;20398;-69
2022/12/04 08:25:33;;;;;;;26.70;15.50;;;;;;;1.14;63.07;99869.53;10432183;28;20426;-68
2022/12/04 08:30:34;;;;;;;28.38;17.27;;;;;;;1.31;62.91;99871.72;10432812;28;20045;-69
2022/12/04 08:35:36;;;;;;;27.50;16.25;;;;;;;1.38;62.66;99873.25;10432698;28;20045;-69
2022/12/04 08:40:38;;;;;;;28.67;16.15;;;;;;;1.48;62.94;99868.75;10433077;28;20063;-69
2022/12/04 08:45:39;;;;;;;31.50;17.95;;;;;;;1.31;62.77;99866.56;10431305;28;20079;-68
2022/12/04 08:50:44;;;;;;;28.73;17.10;;;;;;;1.22;63.34;99883.09;10469932;28;20052;-68
2022/12/04 08:55:46;;;;;;;30.33;17.25;;;;;;;1.38;63.05;99894.72;10429562;28;20379;-69
2022/12/04 09:00:48;;;;;;;31.60;17.70;;;;;;;1.16;63.42;99884.94;10433584;28;20516;-68
2022/12/04 09:05:50;;;;;;;28.58;16.17;;;;;;;1.14;63.77;99881.56;10432028;28;20056;-69
2022/12/04 09:10:51;;;;;;;29.20;16.70;;;;;;;1.44;63.50;99882.59;10434809;28;20509;-69
2022/12/04 09:15:53;;;;;;;31.02;16.33;;;;;;;1.37;63.57;99876.72;10428977;28;20061;-69
2022/12/04 09:20:57;;;;;;;32.00;17.35;;;;;;;1.35;63.55;99874.19;10424751;28;20137;-69
2022/12/04 09:25:59;;;;;;;32.90;16.90;;;;;;;1.39;63.59;99877.53;10428401;28;20311;-69
2022/12/04 09:31:03;;;;;;;32.60;17.58;;;;;;;1.46;63.95;99867.94;10428268;28;20052;-69
2022/12/04 09:36:05;;;;;;;33.00;17.70;;;;;;;1.58;63.59;99870.22;10428678;28;20048;-69
2022/12/04 09:41:34;;;;;;;30.38;16.90;;;;;;;1.51;63.87;99861.78;10427170;28;20048;-69
2022/12/04 09:46:41;;;;;;;32.13;16.65;;;;;;;1.71;63.48;99856.97;10432635;28;20311;-69
2022/12/04 09:51:44;;;;;;;33.22;17.05;;;;;;;1.72;63.62;99863.84;10425618;28;20500;-69
2022/12/04 09:56:53;;;;;;;28.60;15.48;;;;;;;1.79;63.91;99857.63;10435896;28;20394;-69
2022/12/04 10:02:30;;;;;;;32.17;17.30;;;;;;;1.77;63.67;99861.97;10440815;28;20572;-69
2022/12/04 10:07:52;;;;;;;31.98;16.75;;;;;;;1.61;64.10;99855.53;10425622;28;20165;-69
2022/12/04 10:13:13;;;;;;;28.60;15.82;;;;;;;1.51;64.51;99838.59;10424000;28;20467;-69
2022/12/04 10:18:21;;;;;;;30.58;16.30;;;;;;;1.53;64.37;99835.97;10417006;28;20386;-70
2022/12/04 10:23:50;;;;;;;29.90;17.15;;;;;;;1.47;64.71;99829.25;10426221;28;20049;-69
2022/12/04 10:28:59;;;;;;;30.77;16.35;;;;;;;1.60;64.67;99829.78;10423958;28;20572;-69
2022/12/04 10:34:12;;;;;;;29.58;15.55;;;;;;;1.77;64.25;99828.47;10424236;28;20064;-68
2022/12/04 10:39:24;;;;;;;28.83;15.63;;;;;;;1.88;64.19;99830.78;10423915;28;20053;-68
2022/12/04 10:44:25;;;;;;;;;;;;;;;1.38;65.40;99831.22;10432750;28;20045;-68
2022/12/04 10:49:29;;;;;;;31.52;18.20;;;;;;;1.61;64.71;99816.84;10429972;28;19931;-69
2022/12/04 10:54:59;;;;;;;33.97;18.00;;;;;;;1.70;64.85;99820.94;10426704;28;20421;-68
2022/12/04 11:00:21;;;;;;;28.58;16.95;;;;;;;1.66;64.80;99809.00;10425205;28;20393;-68
2022/12/04 11:05:30;;;;;;;28.35;16.30;;;;;;;1.84;64.69;99806.81;10426972;28;20417;-68
2022/12/04 11:10:32;;;;;;;31.10;18.02;;;;;;;1.93;64.65;99801.41;10429237;28;20041;-68
2022/12/04 11:15:41;;;;;;;35.25;18.63;;;;;;;2.02;64.48;99790.84;10425477;28;20071;-68
2022/12/04 11:20:49;;;;;;;33.35;18.83;;;;;;;2.14;64.35;99784.50;10423569;28;20490;-68
2022/12/04 11:25:58;;;;;;;32.17;18.60;;;;;;;2.35;64.02;99775.28;10429073;28;20052;-68
2022/12/04 11:31:08;;;;;;;35.20;18.88;;;;;;;2.33;63.82;99771.91;10422344;28;20045;-68
2022/12/04 11:36:20;;;;;;;35.70;18.48;;;;;;;2.23;63.73;99763.59;10429921;28;20047;-68
2022/12/04 11:41:27;;;;;;;32.65;18.58;;;;;;;2.41;63.47;99757.91;10429329;28;20077;-67
2022/12/04 11:46:33;;;;;;;33.85;18.58;;;;;;;2.43;63.43;99763.88;10426205;28;20045;-66
2022/12/04 11:51:47;;;;;;;34.70;18.23;;;;;;;2.00;63.68;99761.66;10431430;28;20076;-67
2022/12/04 11:56:58;;;;;;;30.95;18.17;;;;;;;1.96;64.21;99754.91;10436720;28;20143;-67
2022/12/04 12:02:36;;;;;;;31.73;18.17;;;;;;;2.17;64.14;99756.03;10431207;28;20049;-67
2022/12/04 12:07:56;;;;;;;32.42;18.60;;;;;;;2.42;63.49;99744.09;10430691;28;20456;-66
2022/12/04 12:13:16;;;;;;;29.23;16.88;;;;;;;2.58;62.95;99739.34;10432420;28;20142;-66
2022/12/04 12:18:36;;;;;;;30.65;16.02;;;;;;;2.29;63.40;99762.56;10428776;28;20504;-66
2022/12/04 12:23:43;;;;;;;29.35;15.98;;;;;;;2.12;63.73;99765.63;10429544;28;20480;-66
2022/12/04 12:29:03;;;;;;;28.88;16.30;;;;;;;2.20;63.40;99761.94;10432208;28;20045;-68
2022/12/04 12:34:14;;;;;;;27.42;15.60;;;;;;;2.19;63.46;99751.69;10444935;28;20048;-67
2022/12/04 12:39:24;;;;;;;25.88;15.50;;;;;;;2.38;63.39;99757.97;10432652;28;20326;-66
2022/12/04 12:44:40;;;;;;;23.73;15.27;;;;;;;2.59;62.66;99769.41;10448439;28;20037;-67
2022/12/04 12:49:52;;;;;;;24.95;14.73;;;;;;;2.37;62.38;99782.09;10429324;28;20494;-66
2022/12/04 12:55:01;;;;;;;26.33;15.18;;;;;;;2.35;62.95;99773.56;10431775;28;20049;-67
2022/12/04 13:00:06;;;;;;;22.67;14.20;;;;;;;2.25;63.08;99760.97;10441571;28;20052;-67
2022/12/04 13:05:12;;;;;;;24.30;14.75;;;;;;;2.42;63.04;99762.16;10428120;28;20052;-67
2022/12/04 13:10:46;;;;;;;27.63;16.02;;;;;;;2.31;62.84;99745.31;10434651;28;20382;-67
2022/12/04 13:16:18;;;;;;;28.75;15.30;;;;;;;2.23;62.94;99741.19;10427215;28;20815;-67
2022/12/04 13:21:46;;;;;;;28.80;16.83;;;;;;;2.25;63.32;99737.75;10429045;28;20080;-67
2022/12/04 13:27:06;;;;;;;26.30;15.80;;;;;;;2.04;63.21;99739.22;10426281;28;20720;-67
2022/12/04 13:32:43;;;;;;;26.48;15.60;;;;;;;2.21;63.31;99729.25;10429792;28;20049;-68
2022/12/04 13:38:09;;;;;;;28.60;15.68;;;;;;;2.26;63.36;99732.53;10417200;28;20401;-67
2022/12/04 13:43:22;;;;;;;24.17;14.95;;;;;;;2.55;63.10;99748.00;10429026;28;20060;-68
2022/12/04 13:48:29;;;;;;;26.05;15.57;;;;;;;2.60;62.65;99740.97;10448063;28;20156;-67
2022/12/04 13:53:36;;;;;;;24.83;14.77;;;;;;;2.57;62.94;99732.47;10431077;28;20045;-67
2022/12/04 13:58:38;;;;;;;26.75;14.90;;;;;;;2.55;62.81;99727.38;10429972;28;20243;-66
2022/12/04 14:03:49;;;;;;;23.45;14.68;;;;;;;2.45;62.72;99723.38;10428193;28;20397;-67
2022/12/04 14:08:57;;;;;;;23.63;14.45;;;;;;;2.74;62.84;99725.06;10431113;28;20049;-67
2022/12/04 14:13:59;;;;;;;25.65;15.48;;;;;;;2.89;62.18;99711.66;10431909;28;20064;-67
2022/12/04 14:19:25;;;;;;;27.48;15.68;;;;;;;2.64;62.24;99709.00;10429227;28;20615;-67
2022/12/04 14:24:30;;;;;;;23.73;14.95;;;;;;;2.68;62.59;99714.94;10427792;28;20777;-68
2022/12/04 14:29:50;;;;;;;23.85;14.82;;;;;;;2.63;62.48;99707.31;10469320;28;20508;-68
2022/12/04 14:34:53;;;;;;;26.55;16.23;;;;;;;2.63;62.70;99709.03;10469160;28;20060;-68
2022/12/04 14:39:57;;;;;;;26.95;16.55;;;;;;;2.69;62.76;99719.19;10465904;28;20501;-68
2022/12/04 14:45:01;;;;;;;28.90;16.98;;;;;;;2.63;62.69;99707.31;10429093;28;20053;-67
2022/12/04 14:50:28;;;;;;;29.15;16.60;;;;;;;2.66;62.58;99707.19;10435575;28;20057;-67
2022/12/04 14:55:51;;;;;;;31.83;17.88;;;;;;;2.61;62.71;99703.09;10426415;28;20489;-67
2022/12/04 15:00:55;;;;;;;29.83;17.55;;;;;;;2.52;62.94;99695.66;10430360;28;20060;-67
2022/12/04 15:06:10;;;;;;;27.48;16.50;;;;;;;2.61;63.27;99696.19;10428073;28;20045;-67
2022/12/04 15:16:39;;;;;;;29.90;17.70;;;;;;;2.93;62.21;99702.91;10428996;28;20390;-68
2022/12/04 15:21:41;;;;;;;28.77;18.10;;;;;;;2.70;62.85;99707.97;10500555;28;20049;-68
2022/12/04 15:26:43;;;;;;;27.45;17.13;;;;;;;2.96;62.52;99726.91;10476163;28;20605;-68
2022/12/04 15:31:52;;;;;;;26.92;17.08;;;;;;;2.95;62.49;99725.22;10467305;28;20534;-68
2022/12/04 15:37:17;;;;;;;26.70;17.30;;;;;;;2.75;62.63;99731.91;10475220;28;20049;-68
2022/12/04 15:42:29;;;;;;;27.08;17.10;;;;;;;2.86;62.42;99735.84;10435198;28;20056;-68
2022/12/04 15:47:53;;;;;;;26.17;17.00;;;;;;;2.87;62.26;99742.69;10434222;28;20537;-68
2022/12/04 15:53:12;;;;;;;28.20;17.63;;;;;;;2.76;62.71;99738.75;10443443;28;20512;-68
2022/12/04 15:58:32;;;;;;;29.15;17.67;;;;;;;2.83;62.60;99728.19;10440263;28;20052;-68
2022/12/04 16:03:44;;;;;;;28.75;18.08;;;;;;;2.73;62.67;99739.69;10433879;28;20421;-68
2022/12/04 16:08:52;;;;;;;28.02;17.50;;;;;;;2.71;62.95;99741.47;10445836;28;20056;-67
2022/12/04 16:14:14;;;;;;;27.05;17.40;;;;;;;2.77;62.79;99735.28;10433822;28;20611;-68
2022/12/04 16:19:37;;;;;;;26.50;16.95;;;;;;;2.84;62.95;99731.63;10456873;28;20056;-68
2022/12/04 16:24:39;;;;;;;25.33;17.05;;;;;;;3.06;62.49;99732.63;10443137;28;20048;-67
2022/12/04 16:29:41;;;;;;;28.52;17.65;;;;;;;2.99;62.56;99737.13;10436234;28;20727;-67
2022/12/04 16:34:43;;;;;;;28.55;17.15;;;;;;;2.96;62.63;99733.81;10432453;28;20045;-68
2022/12/04 16:39:45;;;;;;;29.33;17.98;;;;;;;2.92;62.50;99743.41;10462735;28;20045;-67
2022/12/04 16:44:47;;;;;;;26.80;17.35;;;;;;;2.68;63.19;99746.72;10432209;28;20413;-67
2022/12/04 16:49:50;;;;;;;29.00;18.17;;;;;;;2.67;63.36;99745.06;10433055;28;20055;-67
2022/12/04 16:54:52;;;;;;;28.13;17.92;;;;;;;2.72;63.33;99745.78;10442706;28;20075;-67
2022/12/04 16:59:54;;;;;;;28.45;17.80;;;;;;;2.77;63.41;99743.88;10443536;28;20081;-66
2022/12/04 17:04:56;;;;;;;27.17;17.65;;;;;;;2.75;63.41;99755.13;10436653;28;20053;-67
2022/12/04 17:09:58;;;;;;;28.58;17.70;;;;;;;2.50;63.93;99757.63;10439837;28;20076;-67
2022/12/04 17:15:00;;;;;;;30.58;18.80;;;;;;;2.64;64.10;99758.03;10431696;28;20059;-68
2022/12/04 17:20:02;;;;;;;32.30;20.17;;;;;;;2.62;64.15;99754.66;10431927;28;20528;-67
2022/12/04 17:25:04;;;;;;;30.85;18.50;;;;;;;2.63;64.09;99750.34;10431421;28;20056;-67
2022/12/04 17:30:07;;;;;;;27.60;18.25;;;;;;;2.59;64.07;99741.88;10429902;28;20057;-67
2022/12/04 17:35:11;;;;;;;31.58;18.83;;;;;;;2.64;64.56;99739.97;10439140;28;20063;-67
2022/12/04 17:40:13;;;;;;;28.52;18.88;;;;;;;2.64;64.36;99745.13;10429833;28;20512;-67
2022/12/04 17:45:15;;;;;;;29.35;18.77;;;;;;;2.62;64.79;99739.16;10435324;28;20075;-67
2022/12/04 17:50:17;;;;;;;30.92;19.75;;;;;;;2.44;64.87;99742.31;10450289;28;20049;-67
2022/12/04 17:55:19;;;;;;;29.23;19.20;;;;;;;2.62;64.86;99741.75;10438616;28;20052;-67
2022/12/04 18:00:20;;;;;;;31.17;19.13;;;;;;;2.66;64.90;99745.09;10429345;28;20075;-67
2022/12/04 18:05:22;;;;;;;31.35;19.10;;;;;;;2.77;65.01;99745.59;10434926;28;20041;-67
2022/12/04 18:10:24;;;;;;;27.42;18.23;;;;;;;2.86;64.63;99730.69;10454372;28;20223;-67
2022/12/04 18:15:25;;;;;;;29.15;18.83;;;;;;;2.82;64.70;99729.09;10428428;28;20056;-67
2022/12/04 18:20:27;;;;;;;29.63;18.65;;;;;;;2.78;64.54;99732.66;10459534;28;20277;-67
2022/12/04 18:25:28;;;;;;;31.92;19.30;;;;;;;2.75;64.66;99729.31;10437333;28;20311;-68
2022/12/04 18:30:32;;;;;;;28.88;18.30;;;;;;;2.73;64.73;99729.38;10428685;28;20060;-67
2022/12/04 18:35:34;;;;;;;29.98;18.73;;;;;;;2.65;64.87;99725.34;10445930;28;20071;-66
2022/12/04 18:40:35;;;;;;;35.40;20.67;;;;;;;2.63;65.34;99725.38;10433252;28;20048;-66
2022/12/04 18:45:37;;;;;;;32.83;20.38;;;;;;;2.57;65.35;99720.41;10428638;28;20059;-66
2022/12/04 18:50:42;;;;;;;32.97;20.80;;;;;;;2.64;65.48;99714.16;10427315;28;20055;-67
2022/12/04 18:55:43;;;;;;;33.47;20.27;;;;;;;2.40;65.69;99714.09;10428509;28;20072;-67
2022/12/04 19:00:45;;;;;;;30.40;19.02;;;;;;;2.25;66.12;99706.78;10424003;28;20493;-67
2022/12/04 19:05:50;;;;;;;36.47;21.73;;;;;;;2.24;66.62;99711.09;10423928;28;21005;-67
2022/12/04 19:10:52;;;;;;;35.30;21.60;;;;;;;2.27;66.55;99708.44;10424721;28;20493;-67
2022/12/04 19:15:53;;;;;;;36.08;21.65;;;;;;;2.32;66.30;99709.13;10428041;28;20056;-67
2022/12/04 19:20:56;;;;;;;35.15;21.95;;;;;;;2.21;66.75;99701.69;10423787;28;20496;-66
2022/12/04 19:25:59;;;;;;;38.42;23.00;;;;;;;2.27;66.97;99705.84;10428749;28;20057;-67
2022/12/04 19:31:01;;;;;;;37.38;22.13;;;;;;;2.48;66.94;99704.38;10424988;28;20052;-67
2022/12/04 19:36:04;;;;;;;37.10;22.92;;;;;;;2.54;66.64;99709.34;10424653;28;20515;-67
2022/12/04 19:41:16;;;;;;;40.60;24.15;;;;;;;2.63;67.00;99722.81;10432739;28;20818;-67
2022/12/04 19:46:22;;;;;;;37.92;22.88;;;;;;;2.77;66.58;99727.53;10422170;28;20052;-67
2022/12/04 19:51:30;;;;;;;39.13;22.85;;;;;;;2.80;66.45;99735.19;10426213;28;20163;-67
2022/12/04 19:56:34;;;;;;;37.35;22.52;;;;;;;2.87;66.70;99747.84;10425754;28;20493;-67
2022/12/04 20:01:35;;;;;;;36.83;21.98;;;;;;;2.96;66.43;99747.59;10424891;28;20421;-66
2022/12/04 20:06:43;;;;;;;36.78;23.13;;;;;;;3.09;66.46;99754.94;10434717;28;20059;-67
2022/12/04 20:11:45;;;;;;;37.75;21.35;;;;;;;3.19;66.13;99758.91;10435203;28;20231;-66
2022/12/04 20:16:47;;;;;;;36.03;21.60;;;;;;;3.06;66.17;99758.47;10434739;28;20338;-66
2022/12/04 20:21:50;;;;;;;36.10;21.27;;;;;;;2.91;66.54;99759.78;10432940;28;20087;-67
2022/12/04 20:26:59;;;;;;;35.83;22.80;;;;;;;2.79;66.67;99755.00;10442607;28;20063;-66
2022/12/04 20:32:01;;;;;;;37.15;22.77;;;;;;;2.88;66.88;99751.28;10442447;28;20056;-66
2022/12/04 20:37:03;;;;;;;43.40;25.30;;;;;;;2.89;66.84;99747.81;10433603;28;20052;-66
2022/12/04 20:42:04;;;;;;;48.15;25.80;;;;;;;2.86;66.93;99753.09;10464487;28;20059;-67
2022/12/04 20:47:06;;;;;;;48.25;26.70;;;;;;;2.91;66.82;99759.78;10436600;28;20482;-66
2022/12/04 20:52:07;;;;;;;38.53;23.88;;;;;;;3.03;66.71;99759.38;10431770;28;20052;-67
2022/12/04 20:57:09;;;;;;;44.65;25.48;;;;;;;3.11;66.71;99763.47;10433841;28;20115;-67
2022/12/04 21:02:11;;;;;;;44.00;23.48;;;;;;;3.20;66.56;99761.44;10441124;28;20041;-67
2022/12/04 21:07:13;;;;;;;51.13;26.13;;;;;;;3.24;66.42;99763.03;10432034;28;20493;-66
2022/12/04 21:17:43;;;;;;;61.63;29.10;;;;;;;3.31;66.59;99771.44;10431412;28;20913;-66
2022/12/04 21:22:45;;;;;;;52.15;29.17;;;;;;;3.33;66.73;99779.97;10431170;28;20061;-67
2022/12/04 21:27:46;;;;;;;69.20;31.38;;;;;;;3.27;66.93;99787.94;10431017;28;20048;-67
2022/12/04 21:32:48;;;;;;;79.35;33.53;;;;;;;3.31;66.78;99786.94;10430559;28;20041;-67
2022/12/04 21:37:49;;;;;;;63.65;30.55;;;;;;;3.31;66.83;99787.78;10436733;28;20490;-67
2022/12/04 21:42:51;;;;;;;68.25;32.15;;;;;;;3.22;66.77;99792.38;10429654;28;20060;-66
2022/12/04 21:47:53;;;;;;;47.88;27.08;;;;;;;3.17;66.93;99791.72;10428902;28;20055;-66
2022/12/04 21:52:54;;;;;;;52.33;26.92;;;;;;;3.16;66.70;99793.44;10426101;28;20288;-68
2022/12/04 21:57:56;;;;;;;53.60;27.92;;;;;;;3.15;66.87;99798.66;10430513;28;20401;-68
2022/12/04 22:02:58;;;;;;;48.90;26.38;;;;;;;3.16;66.72;99795.16;10440090;28;20074;-67
2022/12/04 22:08:00;;;;;;;45.58;24.20;;;;;;;3.20;66.85;99795.03;10429373;28;20150;-68
2022/12/04 22:13:01;;;;;;;44.97;26.20;;;;;;;3.25;66.72;99794.88;10442904;28;20037;-68
2022/12/04 22:18:05;;;;;;;62.85;30.52;;;;;;;3.29;66.81;99796.47;10441365;28;20512;-67
2022/12/04 22:23:07;;;;;;;62.47;29.92;;;;;;;3.33;66.70;99796.34;10435442;28;20049;-68
2022/12/04 22:28:09;;;;;;;74.30;30.23;;;;;;;3.26;66.73;99796.56;10435694;28;20060;-67
2022/12/04 22:33:10;;;;;;;77.65;30.25;;;;;;;3.27;66.76;99793.09;10429664;28;20053;-68
2022/12/04 22:38:12;;;;;;;65.10;29.83;;;;;;;3.23;66.75;99794.09;10429405;28;20060;-67
2022/12/04 22:43:15;;;;;;;80.00;31.98;;;;;;;3.07;66.83;99799.72;10432298;28;20047;-68
2022/12/04 22:48:17;;;;;;;55.22;27.48;;;;;;;3.14;66.60;99789.22;10432044;28;20057;-67
2022/12/04 22:53:18;;;;;;;68.45;30.45;;;;;;;3.16;66.48;99784.84;10426714;28;20759;-67
2022/12/04 22:58:21;;;;;;;64.55;29.48;;;;;;;3.17;66.43;99784.81;10428204;28;20048;-67
2022/12/04 23:03:22;;;;;;;74.38;31.50;;;;;;;3.13;66.50;99785.78;10436494;28;20051;-67
2022/12/04 23:08:25;;;;;;;66.75;30.00;;;;;;;3.11;66.34;99787.56;10465929;28;20398;-67
2022/12/04 23:13:27;;;;;;;77.18;33.17;;;;;;;3.10;66.30;99785.88;10426072;28;20110;-67
2022/12/04 23:18:28;;;;;;;64.10;30.42;;;;;;;3.04;66.29;99789.50;10425361;28;20930;-67
2022/12/04 23:23:31;;;;;;;65.15;30.08;;;;;;;2.97;66.36;99780.25;10425118;28;20040;-67
2022/12/04 23:28:33;;;;;;;51.97;27.27;;;;;;;2.96;66.34;99788.91;10424338;28;20091;-67
2022/12/04 23:33:36;;;;;;;68.03;29.98;;;;;;;2.95;66.32;99791.53;10425377;28;20520;-68
2022/12/04 23:38:39;;;;;;;65.45;29.20;;;;;;;2.92;66.19;99789.03;10424138;28;20059;-66
2022/12/04 23:43:41;;;;;;;50.28;26.63;;;;;;;2.84;66.23;99789.28;10425330;28;20513;-67
2022/12/04 23:48:44;;;;;;;59.65;28.38;;;;;;;2.80;66.34;99792.88;10464506;28;20496;-67
2022/12/04 23:53:46;;;;;;;57.45;27.40;;;;;;;2.77;66.24;99799.84;10434178;28;20056;-67
2022/12/04 23:58:51;;;;;;;83.85;29.63;;;;;;;2.70;66.15;99801.75;10432868;28;20056;-66
